sensor_id;sensor_type;location;lat;lon;timestamp;P1;durP1;ratioP1;P2;durP2;ratioP2
68247;SDS011;55064;49.636;12.164;2023-08-08T00:00:56;6.15;;;2.40;;
68247;SDS011;55064;49.636;12.164;2023-08-08T00:10:06;6.85;;;2.30;;
68247;SDS011;55064;49.636;12.164;2023-08-08T00:32:13;6.85;;;2.53;;
68247;SDS011;55064;49.636;12.164;2023-08-08T00:34:39;7.47;;;2.70;;
68247;SDS011;55064;49.636;12.164;2023-08-08T00:37:06;9.70;;;3.05;;
68247;SDS011;55064;49.636;12.164;2023-08-08T00:39:32;8.23;;;3.07;;
68247;SDS011;55064;49.636;12.164;2023-08-08T00:41:57;7.23;;;3.07;;
68247;SDS011;55064;49.636;12.164;2023-08-08T00:44:23;8.17;;;3.10;;
68247;SDS011;55064;49.636;12.164;2023-08-08T00:46:48;7.13;;;3.20;;
68247;SDS011;55064;49.636;12.164;2023-08-08T00:49:14;6.23;;;2.70;;
68247;SDS011;55064;49.636;12.164;2023-08-08T00:51:39;6.40;;;2.70;;
68247;SDS011;55064;49.636;12.164;2023-08-08T00:54:05;7.07;;;2.95;;
68247;SDS011;55064;49.636;12.164;2023-08-08T00:56:33;7.22;;;3.10;;
68247;SDS011;55064;49.636;12.164;2023-08-08T00:59:01;6.72;;;3.10;;
68247;SDS011;55064;49.636;12.164;2023-08-08T01:01:27;7.60;;;3.07;;
68247;SDS011;55064;49.636;12.164;2023-08-08T01:03:52;6.50;;;2.93;;
68247;SDS011;55064;49.636;12.164;2023-08-08T01:06:25;6.87;;;2.57;;
68247;SDS011;55064;49.636;12.164;2023-08-08T01:09:31;7.03;;;3.35;;
68247;SDS011;55064;49.636;12.164;2023-08-08T01:12:00;7.22;;;3.30;;
68247;SDS011;55064;49.636;12.164;2023-08-08T01:14:27;7.00;;;3.08;;
68247;SDS011;55064;49.636;12.164;2023-08-08T01:16:55;8.63;;;3.22;;
68247;SDS011;55064;49.636;12.164;2023-08-08T01:19:30;7.43;;;3.30;;
68247;SDS011;55064;49.636;12.164;2023-08-08T01:22:03;6.88;;;2.90;;
68247;SDS011;55064;49.636;12.164;2023-08-08T01:24:32;7.05;;;3.13;;
68247;SDS011;55064;49.636;12.164;2023-08-08T01:26:59;8.45;;;3.30;;
68247;SDS011;55064;49.636;12.164;2023-08-08T01:29:26;7.00;;;3.05;;
68247;SDS011;55064;49.636;12.164;2023-08-08T01:31:55;8.10;;;3.60;;
68247;SDS011;55064;49.636;12.164;2023-08-08T01:34:20;8.20;;;2.83;;
68247;SDS011;55064;49.636;12.164;2023-08-08T01:36:57;8.43;;;3.40;;
68247;SDS011;55064;49.636;12.164;2023-08-08T01:39:28;8.00;;;3.00;;
68247;SDS011;55064;49.636;12.164;2023-08-08T01:41:55;7.33;;;3.13;;
68247;SDS011;55064;49.636;12.164;2023-08-08T01:44:24;7.03;;;2.88;;
68247;SDS011;55064;49.636;12.164;2023-08-08T01:46:55;8.35;;;3.03;;
68247;SDS011;55064;49.636;12.164;2023-08-08T01:49:21;8.65;;;3.05;;
68247;SDS011;55064;49.636;12.164;2023-08-08T01:51:46;8.90;;;3.17;;
68247;SDS011;55064;49.636;12.164;2023-08-08T01:54:13;8.75;;;3.55;;
68247;SDS011;55064;49.636;12.164;2023-08-08T01:56:41;6.33;;;3.40;;
68247;SDS011;55064;49.636;12.164;2023-08-08T01:59:06;8.60;;;3.80;;
68247;SDS011;55064;49.636;12.164;2023-08-08T02:01:32;6.70;;;3.20;;
68247;SDS011;55064;49.636;12.164;2023-08-08T02:04:00;7.00;;;3.20;;
68247;SDS011;55064;49.636;12.164;2023-08-08T02:06:26;6.90;;;3.40;;
68247;SDS011;55064;49.636;12.164;2023-08-08T02:08:52;9.07;;;3.10;;
68247;SDS011;55064;49.636;12.164;2023-08-08T02:11:19;8.20;;;3.22;;
68247;SDS011;55064;49.636;12.164;2023-08-08T02:13:44;7.10;;;3.10;;
68247;SDS011;55064;49.636;12.164;2023-08-08T02:16:11;7.07;;;3.15;;
68247;SDS011;55064;49.636;12.164;2023-08-08T02:18:38;7.30;;;3.57;;
68247;SDS011;55064;49.636;12.164;2023-08-08T02:21:07;9.43;;;3.40;;
68247;SDS011;55064;49.636;12.164;2023-08-08T02:23:35;7.07;;;3.40;;
68247;SDS011;55064;49.636;12.164;2023-08-08T02:26:03;7.82;;;3.50;;
68247;SDS011;55064;49.636;12.164;2023-08-08T02:28:28;7.57;;;3.50;;
68247;SDS011;55064;49.636;12.164;2023-08-08T02:30:53;7.87;;;3.40;;
68247;SDS011;55064;49.636;12.164;2023-08-08T02:33:19;7.38;;;3.42;;
68247;SDS011;55064;49.636;12.164;2023-08-08T02:35:45;7.70;;;3.60;;
68247;SDS011;55064;49.636;12.164;2023-08-08T02:38:13;8.90;;;3.83;;
68247;SDS011;55064;49.636;12.164;2023-08-08T02:40:39;7.57;;;3.60;;
68247;SDS011;55064;49.636;12.164;2023-08-08T02:43:05;10.30;;;3.80;;
68247;SDS011;55064;49.636;12.164;2023-08-08T02:45:30;7.97;;;3.60;;
68247;SDS011;55064;49.636;12.164;2023-08-08T02:47:55;8.63;;;3.80;;
68247;SDS011;55064;49.636;12.164;2023-08-08T02:50:21;8.87;;;3.77;;
68247;SDS011;55064;49.636;12.164;2023-08-08T02:52:46;10.30;;;3.55;;
68247;SDS011;55064;49.636;12.164;2023-08-08T02:55:14;7.33;;;3.30;;
68247;SDS011;55064;49.636;12.164;2023-08-08T02:57:41;7.50;;;3.13;;
68247;SDS011;55064;49.636;12.164;2023-08-08T03:00:07;7.83;;;3.30;;
68247;SDS011;55064;49.636;12.164;2023-08-08T03:02:33;6.90;;;3.22;;
68247;SDS011;55064;49.636;12.164;2023-08-08T03:04:59;7.05;;;3.25;;
68247;SDS011;55064;49.636;12.164;2023-08-08T03:07:25;9.33;;;4.17;;
68247;SDS011;55064;49.636;12.164;2023-08-08T03:09:53;8.50;;;3.70;;
68247;SDS011;55064;49.636;12.164;2023-08-08T03:12:18;10.98;;;3.90;;
68247;SDS011;55064;49.636;12.164;2023-08-08T03:14:43;7.07;;;3.30;;
68247;SDS011;55064;49.636;12.164;2023-08-08T03:17:09;7.83;;;3.30;;
68247;SDS011;55064;49.636;12.164;2023-08-08T03:19:34;7.03;;;3.23;;
68247;SDS011;55064;49.636;12.164;2023-08-08T03:22:02;8.45;;;3.60;;
68247;SDS011;55064;49.636;12.164;2023-08-08T03:24:30;7.87;;;3.13;;
68247;SDS011;55064;49.636;12.164;2023-08-08T03:26:58;7.25;;;3.22;;
68247;SDS011;55064;49.636;12.164;2023-08-08T03:29:25;7.65;;;3.30;;
68247;SDS011;55064;49.636;12.164;2023-08-08T03:31:52;7.17;;;3.00;;
68247;SDS011;55064;49.636;12.164;2023-08-08T03:34:17;6.88;;;3.50;;
68247;SDS011;55064;49.636;12.164;2023-08-08T03:36:43;6.93;;;3.20;;
68247;SDS011;55064;49.636;12.164;2023-08-08T03:39:12;7.90;;;3.40;;
68247;SDS011;55064;49.636;12.164;2023-08-08T03:41:37;7.75;;;3.63;;
68247;SDS011;55064;49.636;12.164;2023-08-08T03:44:03;7.23;;;3.03;;
68247;SDS011;55064;49.636;12.164;2023-08-08T03:46:29;7.20;;;3.50;;
68247;SDS011;55064;49.636;12.164;2023-08-08T03:48:55;8.05;;;4.60;;
68247;SDS011;55064;49.636;12.164;2023-08-08T03:51:20;8.10;;;4.10;;
68247;SDS011;55064;49.636;12.164;2023-08-08T03:53:53;9.10;;;4.10;;
68247;SDS011;55064;49.636;12.164;2023-08-08T03:56:21;7.27;;;3.50;;
68247;SDS011;55064;49.636;12.164;2023-08-08T03:58:47;8.00;;;3.83;;
68247;SDS011;55064;49.636;12.164;2023-08-08T04:01:14;7.03;;;3.60;;
68247;SDS011;55064;49.636;12.164;2023-08-08T04:03:40;7.07;;;3.85;;
68247;SDS011;55064;49.636;12.164;2023-08-08T04:06:07;9.82;;;4.88;;
68247;SDS011;55064;49.636;12.164;2023-08-08T04:08:35;7.77;;;3.63;;
68247;SDS011;55064;49.636;12.164;2023-08-08T04:11:02;7.53;;;3.55;;
68247;SDS011;55064;49.636;12.164;2023-08-08T04:13:29;11.70;;;3.67;;
68247;SDS011;55064;49.636;12.164;2023-08-08T04:15:54;9.95;;;3.72;;
68247;SDS011;55064;49.636;12.164;2023-08-08T04:25:04;7.07;;;3.03;;
68247;SDS011;55064;49.636;12.164;2023-08-08T04:30:53;7.38;;;3.10;;
68247;SDS011;55064;49.636;12.164;2023-08-08T04:36:40;9.25;;;3.83;;
68247;SDS011;55064;49.636;12.164;2023-08-08T04:52:29;8.70;;;3.47;;
68247;SDS011;55064;49.636;12.164;2023-08-08T05:01:31;8.82;;;3.72;;
68247;SDS011;55064;49.636;12.164;2023-08-08T05:20:27;8.02;;;3.05;;
68247;SDS011;55064;49.636;12.164;2023-08-08T05:26:16;7.72;;;2.97;;
68247;SDS011;55064;49.636;12.164;2023-08-08T05:32:04;7.68;;;2.95;;
68247;SDS011;55064;49.636;12.164;2023-08-08T05:37:53;6.83;;;3.10;;
68247;SDS011;55064;49.636;12.164;2023-08-08T05:43:40;8.10;;;3.30;;
68247;SDS011;55064;49.636;12.164;2023-08-08T05:52:49;7.43;;;2.97;;
68247;SDS011;55064;49.636;12.164;2023-08-08T06:02:02;8.95;;;2.70;;
68247;SDS011;55064;49.636;12.164;2023-08-08T06:07:49;6.70;;;2.30;;
68247;SDS011;55064;49.636;12.164;2023-08-08T06:13:37;5.80;;;2.30;;
68247;SDS011;55064;49.636;12.164;2023-08-08T06:22:45;5.18;;;2.03;;
68247;SDS011;55064;49.636;12.164;2023-08-08T06:28:32;7.53;;;2.20;;
68247;SDS011;55064;49.636;12.164;2023-08-08T06:34:19;4.50;;;1.60;;
68247;SDS011;55064;49.636;12.164;2023-08-08T06:42:57;5.80;;;1.70;;
68247;SDS011;55064;49.636;12.164;2023-08-08T06:51:46;4.72;;;1.50;;
68247;SDS011;55064;49.636;12.164;2023-08-08T06:54:24;5.50;;;1.70;;
68247;SDS011;55064;49.636;12.164;2023-08-08T06:59:45;4.23;;;1.70;;
68247;SDS011;55064;49.636;12.164;2023-08-08T07:02:22;7.75;;;1.80;;
68247;SDS011;55064;49.636;12.164;2023-08-08T07:04:50;4.68;;;1.80;;
68247;SDS011;55064;49.636;12.164;2023-08-08T07:07:15;5.72;;;1.60;;
68247;SDS011;55064;49.636;12.164;2023-08-08T07:09:41;4.20;;;1.60;;
68247;SDS011;55064;49.636;12.164;2023-08-08T07:12:13;4.57;;;1.60;;
68247;SDS011;55064;49.636;12.164;2023-08-08T07:14:44;4.65;;;1.60;;
68247;SDS011;55064;49.636;12.164;2023-08-08T07:17:11;8.23;;;1.70;;
68247;SDS011;55064;49.636;12.164;2023-08-08T07:19:36;6.20;;;1.70;;
68247;SDS011;55064;49.636;12.164;2023-08-08T07:22:01;4.53;;;1.67;;
68247;SDS011;55064;49.636;12.164;2023-08-08T07:24:27;4.90;;;1.60;;
68247;SDS011;55064;49.636;12.164;2023-08-08T07:26:55;5.60;;;1.70;;
68247;SDS011;55064;49.636;12.164;2023-08-08T07:29:21;5.27;;;1.60;;
68247;SDS011;55064;49.636;12.164;2023-08-08T07:31:48;5.05;;;1.58;;
68247;SDS011;55064;49.636;12.164;2023-08-08T07:34:21;5.80;;;1.60;;
68247;SDS011;55064;49.636;12.164;2023-08-08T07:36:53;5.90;;;1.75;;
68247;SDS011;55064;49.636;12.164;2023-08-08T07:39:19;4.90;;;1.60;;
68247;SDS011;55064;49.636;12.164;2023-08-08T07:41:46;5.82;;;1.70;;
68247;SDS011;55064;49.636;12.164;2023-08-08T07:44:11;5.38;;;1.73;;
68247;SDS011;55064;49.636;12.164;2023-08-08T07:46:39;5.72;;;1.73;;
68247;SDS011;55064;49.636;12.164;2023-08-08T07:49:04;5.97;;;2.30;;
68247;SDS011;55064;49.636;12.164;2023-08-08T07:51:34;6.07;;;1.70;;
68247;SDS011;55064;49.636;12.164;2023-08-08T08:00:37;4.40;;;1.48;;
68247;SDS011;55064;49.636;12.164;2023-08-08T08:03:04;4.03;;;1.42;;
68247;SDS011;55064;49.636;12.164;2023-08-08T08:05:30;6.85;;;1.50;;
68247;SDS011;55064;49.636;12.164;2023-08-08T08:07:55;4.30;;;1.40;;
68247;SDS011;55064;49.636;12.164;2023-08-08T08:10:22;4.10;;;1.40;;
68247;SDS011;55064;49.636;12.164;2023-08-08T08:12:47;4.50;;;1.40;;
68247;SDS011;55064;49.636;12.164;2023-08-08T08:15:15;4.65;;;1.30;;
68247;SDS011;55064;49.636;12.164;2023-08-08T08:17:40;5.20;;;1.30;;
68247;SDS011;55064;49.636;12.164;2023-08-08T08:20:06;4.53;;;1.25;;
68247;SDS011;55064;49.636;12.164;2023-08-08T08:22:37;5.57;;;1.30;;
68247;SDS011;55064;49.636;12.164;2023-08-08T08:25:03;5.10;;;1.30;;
68247;SDS011;55064;49.636;12.164;2023-08-08T08:27:30;3.85;;;1.30;;
68247;SDS011;55064;49.636;12.164;2023-08-08T08:29:55;3.93;;;1.30;;
68247;SDS011;55064;49.636;12.164;2023-08-08T08:32:21;4.10;;;1.13;;
68247;SDS011;55064;49.636;12.164;2023-08-08T08:34:46;4.03;;;1.07;;
68247;SDS011;55064;49.636;12.164;2023-08-08T08:37:12;4.40;;;1.40;;
68247;SDS011;55064;49.636;12.164;2023-08-08T08:39:40;4.53;;;1.30;;
68247;SDS011;55064;49.636;12.164;2023-08-08T08:42:08;4.32;;;1.25;;
68247;SDS011;55064;49.636;12.164;2023-08-08T08:44:38;4.90;;;1.25;;
68247;SDS011;55064;49.636;12.164;2023-08-08T08:47:08;3.87;;;1.07;;
68247;SDS011;55064;49.636;12.164;2023-08-08T08:49:37;4.35;;;1.17;;
68247;SDS011;55064;49.636;12.164;2023-08-08T08:52:03;6.30;;;1.30;;
68247;SDS011;55064;49.636;12.164;2023-08-08T08:54:32;4.28;;;1.30;;
68247;SDS011;55064;49.636;12.164;2023-08-08T08:56:58;4.28;;;1.20;;
68247;SDS011;55064;49.636;12.164;2023-08-08T08:59:23;4.70;;;1.17;;
68247;SDS011;55064;49.636;12.164;2023-08-08T09:01:53;3.95;;;1.10;;
68247;SDS011;55064;49.636;12.164;2023-08-08T09:04:19;4.97;;;1.30;;
68247;SDS011;55064;49.636;12.164;2023-08-08T09:06:45;5.55;;;1.20;;
68247;SDS011;55064;49.636;12.164;2023-08-08T09:09:12;4.45;;;1.30;;
68247;SDS011;55064;49.636;12.164;2023-08-08T09:15:01;5.45;;;1.30;;
68247;SDS011;55064;49.636;12.164;2023-08-08T09:20:29;4.78;;;1.10;;
68247;SDS011;55064;49.636;12.164;2023-08-08T09:29:06;4.82;;;1.30;;
68247;SDS011;55064;49.636;12.164;2023-08-08T09:34:53;5.03;;;1.45;;
68247;SDS011;55064;49.636;12.164;2023-08-08T09:40:09;4.13;;;1.00;;
68247;SDS011;55064;49.636;12.164;2023-08-08T09:42:36;3.97;;;1.15;;
68247;SDS011;55064;49.636;12.164;2023-08-08T09:45:02;4.20;;;1.20;;
68247;SDS011;55064;49.636;12.164;2023-08-08T09:50:19;4.35;;;1.15;;
68247;SDS011;55064;49.636;12.164;2023-08-08T09:52:45;4.87;;;1.40;;
68247;SDS011;55064;49.636;12.164;2023-08-08T09:55:12;3.45;;;1.20;;
68247;SDS011;55064;49.636;12.164;2023-08-08T09:57:40;4.32;;;1.27;;
68247;SDS011;55064;49.636;12.164;2023-08-08T10:00:07;5.67;;;1.30;;
68247;SDS011;55064;49.636;12.164;2023-08-08T10:02:40;3.78;;;1.35;;
68247;SDS011;55064;49.636;12.164;2023-08-08T10:05:10;4.97;;;1.17;;
68247;SDS011;55064;49.636;12.164;2023-08-08T10:07:40;3.33;;;1.20;;
68247;SDS011;55064;49.636;12.164;2023-08-08T10:10:07;3.85;;;1.10;;
68247;SDS011;55064;49.636;12.164;2023-08-08T10:12:36;4.07;;;1.20;;
68247;SDS011;55064;49.636;12.164;2023-08-08T10:15:10;4.10;;;1.10;;
68247;SDS011;55064;49.636;12.164;2023-08-08T10:17:39;4.20;;;1.23;;
68247;SDS011;55064;49.636;12.164;2023-08-08T10:20:06;4.40;;;1.10;;
68247;SDS011;55064;49.636;12.164;2023-08-08T10:22:41;3.58;;;1.20;;
68247;SDS011;55064;49.636;12.164;2023-08-08T10:25:07;3.80;;;1.10;;
68247;SDS011;55064;49.636;12.164;2023-08-08T10:27:38;5.18;;;1.10;;
68247;SDS011;55064;49.636;12.164;2023-08-08T10:30:07;3.97;;;1.40;;
68247;SDS011;55064;49.636;12.164;2023-08-08T10:32:42;5.07;;;1.20;;
68247;SDS011;55064;49.636;12.164;2023-08-08T10:35:09;4.75;;;1.25;;
68247;SDS011;55064;49.636;12.164;2023-08-08T10:37:37;5.80;;;1.40;;
68247;SDS011;55064;49.636;12.164;2023-08-08T10:40:06;4.05;;;1.30;;
68247;SDS011;55064;49.636;12.164;2023-08-08T10:45:51;3.97;;;1.20;;
68247;SDS011;55064;49.636;12.164;2023-08-08T10:51:41;4.13;;;1.20;;
68247;SDS011;55064;49.636;12.164;2023-08-08T10:54:12;3.75;;;1.08;;
68247;SDS011;55064;49.636;12.164;2023-08-08T10:56:39;3.35;;;1.10;;
68247;SDS011;55064;49.636;12.164;2023-08-08T10:59:16;3.72;;;1.10;;
68247;SDS011;55064;49.636;12.164;2023-08-08T11:01:46;3.80;;;1.08;;
68247;SDS011;55064;49.636;12.164;2023-08-08T11:04:13;4.13;;;1.10;;
68247;SDS011;55064;49.636;12.164;2023-08-08T11:06:39;3.80;;;1.17;;
68247;SDS011;55064;49.636;12.164;2023-08-08T11:09:08;3.60;;;1.20;;
68247;SDS011;55064;49.636;12.164;2023-08-08T11:11:37;3.13;;;1.00;;
68247;SDS011;55064;49.636;12.164;2023-08-08T11:14:11;4.00;;;1.10;;
68247;SDS011;55064;49.636;12.164;2023-08-08T11:16:37;6.03;;;1.20;;
68247;SDS011;55064;49.636;12.164;2023-08-08T11:19:06;3.85;;;1.27;;
68247;SDS011;55064;49.636;12.164;2023-08-08T11:21:35;3.33;;;1.00;;
68247;SDS011;55064;49.636;12.164;2023-08-08T11:24:02;4.80;;;1.10;;
68247;SDS011;55064;49.636;12.164;2023-08-08T11:26:29;3.40;;;1.20;;
68247;SDS011;55064;49.636;12.164;2023-08-08T11:28:57;3.88;;;1.05;;
68247;SDS011;55064;49.636;12.164;2023-08-08T11:31:26;4.55;;;1.20;;
68247;SDS011;55064;49.636;12.164;2023-08-08T11:33:54;3.35;;;0.93;;
68247;SDS011;55064;49.636;12.164;2023-08-08T11:36:21;3.78;;;1.20;;
68247;SDS011;55064;49.636;12.164;2023-08-08T11:38:56;3.13;;;0.90;;
68247;SDS011;55064;49.636;12.164;2023-08-08T11:41:23;5.07;;;1.27;;
68247;SDS011;55064;49.636;12.164;2023-08-08T11:43:51;3.78;;;1.05;;
68247;SDS011;55064;49.636;12.164;2023-08-08T11:46:18;3.88;;;1.10;;
68247;SDS011;55064;49.636;12.164;2023-08-08T11:48:46;4.33;;;1.30;;
68247;SDS011;55064;49.636;12.164;2023-08-08T11:51:15;4.35;;;1.10;;
68247;SDS011;55064;49.636;12.164;2023-08-08T11:53:48;4.03;;;1.10;;
68247;SDS011;55064;49.636;12.164;2023-08-08T11:56:21;3.65;;;1.33;;
68247;SDS011;55064;49.636;12.164;2023-08-08T11:58:47;4.33;;;1.00;;
68247;SDS011;55064;49.636;12.164;2023-08-08T12:01:15;3.35;;;1.00;;
68247;SDS011;55064;49.636;12.164;2023-08-08T12:03:45;3.75;;;1.20;;
68247;SDS011;55064;49.636;12.164;2023-08-08T12:06:11;5.15;;;1.38;;
68247;SDS011;55064;49.636;12.164;2023-08-08T12:08:43;3.67;;;1.10;;
68247;SDS011;55064;49.636;12.164;2023-08-08T12:11:11;6.10;;;1.27;;
68247;SDS011;55064;49.636;12.164;2023-08-08T12:13:42;3.05;;;0.98;;
68247;SDS011;55064;49.636;12.164;2023-08-08T12:16:09;4.38;;;1.10;;
68247;SDS011;55064;49.636;12.164;2023-08-08T12:18:38;4.30;;;1.20;;
68247;SDS011;55064;49.636;12.164;2023-08-08T12:21:04;4.20;;;1.20;;
68247;SDS011;55064;49.636;12.164;2023-08-08T12:23:31;4.07;;;1.30;;
68247;SDS011;55064;49.636;12.164;2023-08-08T12:26:02;4.43;;;1.30;;
68247;SDS011;55064;49.636;12.164;2023-08-08T12:28:30;3.47;;;1.10;;
68247;SDS011;55064;49.636;12.164;2023-08-08T12:31:00;3.85;;;1.40;;
68247;SDS011;55064;49.636;12.164;2023-08-08T12:33:26;4.20;;;1.20;;
68247;SDS011;55064;49.636;12.164;2023-08-08T12:35:51;4.40;;;1.10;;
68247;SDS011;55064;49.636;12.164;2023-08-08T12:38:17;4.15;;;1.20;;
68247;SDS011;55064;49.636;12.164;2023-08-08T12:40:46;3.53;;;0.90;;
68247;SDS011;55064;49.636;12.164;2023-08-08T12:43:11;3.42;;;1.20;;
68247;SDS011;55064;49.636;12.164;2023-08-08T12:45:43;5.57;;;1.40;;
68247;SDS011;55064;49.636;12.164;2023-08-08T12:48:10;4.47;;;1.48;;
68247;SDS011;55064;49.636;12.164;2023-08-08T12:50:37;4.93;;;1.50;;
68247;SDS011;55064;49.636;12.164;2023-08-08T12:53:03;5.00;;;1.40;;
68247;SDS011;55064;49.636;12.164;2023-08-08T12:55:31;5.07;;;1.25;;
68247;SDS011;55064;49.636;12.164;2023-08-08T12:57:57;3.35;;;1.00;;
68247;SDS011;55064;49.636;12.164;2023-08-08T13:00:22;5.10;;;1.40;;
68247;SDS011;55064;49.636;12.164;2023-08-08T13:02:50;4.75;;;1.20;;
68247;SDS011;55064;49.636;12.164;2023-08-08T13:05:16;3.47;;;1.17;;
68247;SDS011;55064;49.636;12.164;2023-08-08T13:07:41;3.92;;;1.23;;
68247;SDS011;55064;49.636;12.164;2023-08-08T13:10:11;3.73;;;0.90;;
68247;SDS011;55064;49.636;12.164;2023-08-08T13:12:37;5.07;;;1.73;;
68247;SDS011;55064;49.636;12.164;2023-08-08T13:15:03;5.80;;;1.10;;
68247;SDS011;55064;49.636;12.164;2023-08-08T13:17:28;3.92;;;1.25;;
68247;SDS011;55064;49.636;12.164;2023-08-08T13:19:56;5.93;;;1.30;;
68247;SDS011;55064;49.636;12.164;2023-08-08T13:22:22;5.88;;;1.30;;
68247;SDS011;55064;49.636;12.164;2023-08-08T13:24:48;4.40;;;1.30;;
68247;SDS011;55064;49.636;12.164;2023-08-08T13:27:14;5.47;;;1.27;;
68247;SDS011;55064;49.636;12.164;2023-08-08T13:29:39;4.50;;;1.30;;
68247;SDS011;55064;49.636;12.164;2023-08-08T13:32:05;4.77;;;1.10;;
68247;SDS011;55064;49.636;12.164;2023-08-08T13:34:31;4.00;;;1.00;;
68247;SDS011;55064;49.636;12.164;2023-08-08T13:36:56;4.87;;;1.47;;
68247;SDS011;55064;49.636;12.164;2023-08-08T13:39:24;4.23;;;1.23;;
68247;SDS011;55064;49.636;12.164;2023-08-08T13:41:49;4.55;;;1.30;;
68247;SDS011;55064;49.636;12.164;2023-08-08T13:44:14;5.10;;;1.50;;
68247;SDS011;55064;49.636;12.164;2023-08-08T13:46:40;4.80;;;1.20;;
68247;SDS011;55064;49.636;12.164;2023-08-08T13:49:05;3.80;;;1.23;;
68247;SDS011;55064;49.636;12.164;2023-08-08T13:51:31;4.27;;;1.13;;
68247;SDS011;55064;49.636;12.164;2023-08-08T13:53:57;4.32;;;1.20;;
68247;SDS011;55064;49.636;12.164;2023-08-08T13:56:24;3.78;;;1.20;;
68247;SDS011;55064;49.636;12.164;2023-08-08T13:58:52;4.93;;;1.30;;
68247;SDS011;55064;49.636;12.164;2023-08-08T14:01:23;3.92;;;1.08;;
68247;SDS011;55064;49.636;12.164;2023-08-08T14:03:48;5.20;;;1.30;;
68247;SDS011;55064;49.636;12.164;2023-08-08T14:06:16;4.78;;;1.30;;
68247;SDS011;55064;49.636;12.164;2023-08-08T14:08:41;3.60;;;1.10;;
68247;SDS011;55064;49.636;12.164;2023-08-08T14:11:10;4.95;;;1.05;;
68247;SDS011;55064;49.636;12.164;2023-08-08T14:13:36;4.00;;;1.23;;
68247;SDS011;55064;49.636;12.164;2023-08-08T14:16:02;4.53;;;1.40;;
68247;SDS011;55064;49.636;12.164;2023-08-08T14:18:27;4.53;;;1.50;;
68247;SDS011;55064;49.636;12.164;2023-08-08T14:20:53;3.73;;;1.20;;
68247;SDS011;55064;49.636;12.164;2023-08-08T14:23:19;4.80;;;1.60;;
68247;SDS011;55064;49.636;12.164;2023-08-08T14:25:44;5.30;;;1.47;;
68247;SDS011;55064;49.636;12.164;2023-08-08T14:28:09;4.23;;;1.30;;
68247;SDS011;55064;49.636;12.164;2023-08-08T14:30:37;3.60;;;1.40;;
68247;SDS011;55064;49.636;12.164;2023-08-08T14:33:02;3.90;;;1.13;;
68247;SDS011;55064;49.636;12.164;2023-08-08T14:35:28;3.75;;;1.05;;
68247;SDS011;55064;49.636;12.164;2023-08-08T14:37:53;5.83;;;1.20;;
68247;SDS011;55064;49.636;12.164;2023-08-08T14:40:19;3.57;;;1.20;;
68247;SDS011;55064;49.636;12.164;2023-08-08T14:42:44;4.93;;;1.27;;
68247;SDS011;55064;49.636;12.164;2023-08-08T14:45:10;4.45;;;1.33;;
68247;SDS011;55064;49.636;12.164;2023-08-08T14:47:35;4.50;;;1.40;;
68247;SDS011;55064;49.636;12.164;2023-08-08T14:50:00;5.37;;;1.20;;
68247;SDS011;55064;49.636;12.164;2023-08-08T14:52:26;6.80;;;1.30;;
68247;SDS011;55064;49.636;12.164;2023-08-08T14:54:54;4.70;;;1.40;;
68247;SDS011;55064;49.636;12.164;2023-08-08T14:57:20;5.03;;;1.40;;
68247;SDS011;55064;49.636;12.164;2023-08-08T14:59:46;5.03;;;1.48;;
68247;SDS011;55064;49.636;12.164;2023-08-08T15:02:11;5.28;;;1.30;;
68247;SDS011;55064;49.636;12.164;2023-08-08T15:04:38;6.03;;;1.40;;
68247;SDS011;55064;49.636;12.164;2023-08-08T15:07:03;4.80;;;1.30;;
68247;SDS011;55064;49.636;12.164;2023-08-08T15:09:31;4.27;;;1.17;;
68247;SDS011;55064;49.636;12.164;2023-08-08T15:11:56;4.28;;;1.45;;
68247;SDS011;55064;49.636;12.164;2023-08-08T15:14:21;4.17;;;1.07;;
68247;SDS011;55064;49.636;12.164;2023-08-08T15:16:51;4.57;;;1.17;;
68247;SDS011;55064;49.636;12.164;2023-08-08T15:19:18;3.72;;;1.17;;
68247;SDS011;55064;49.636;12.164;2023-08-08T15:21:44;4.03;;;1.20;;
68247;SDS011;55064;49.636;12.164;2023-08-08T15:24:09;4.20;;;1.17;;
68247;SDS011;55064;49.636;12.164;2023-08-08T15:26:37;4.82;;;1.30;;
68247;SDS011;55064;49.636;12.164;2023-08-08T15:29:02;4.33;;;1.40;;
68247;SDS011;55064;49.636;12.164;2023-08-08T15:31:31;3.28;;;1.10;;
68247;SDS011;55064;49.636;12.164;2023-08-08T15:34:00;4.18;;;1.17;;
68247;SDS011;55064;49.636;12.164;2023-08-08T15:36:26;4.43;;;1.20;;
68247;SDS011;55064;49.636;12.164;2023-08-08T15:38:52;3.50;;;1.25;;
68247;SDS011;55064;49.636;12.164;2023-08-08T15:41:17;3.83;;;1.30;;
68247;SDS011;55064;49.636;12.164;2023-08-08T15:43:42;4.33;;;1.10;;
68247;SDS011;55064;49.636;12.164;2023-08-08T15:46:09;3.73;;;1.20;;
68247;SDS011;55064;49.636;12.164;2023-08-08T15:48:34;3.83;;;1.00;;
68247;SDS011;55064;49.636;12.164;2023-08-08T15:51:00;4.63;;;1.30;;
68247;SDS011;55064;49.636;12.164;2023-08-08T15:53:25;5.27;;;1.30;;
68247;SDS011;55064;49.636;12.164;2023-08-08T15:55:52;4.43;;;1.50;;
68247;SDS011;55064;49.636;12.164;2023-08-08T15:58:18;3.87;;;1.17;;
68247;SDS011;55064;49.636;12.164;2023-08-08T16:00:43;4.27;;;1.30;;
68247;SDS011;55064;49.636;12.164;2023-08-08T16:03:09;3.88;;;1.35;;
68247;SDS011;55064;49.636;12.164;2023-08-08T16:05:35;3.70;;;1.23;;
68247;SDS011;55064;49.636;12.164;2023-08-08T16:08:03;3.88;;;1.30;;
68247;SDS011;55064;49.636;12.164;2023-08-08T16:10:31;6.20;;;1.17;;
68247;SDS011;55064;49.636;12.164;2023-08-08T16:12:59;4.15;;;1.20;;
68247;SDS011;55064;49.636;12.164;2023-08-08T16:15:24;5.53;;;1.40;;
68247;SDS011;55064;49.636;12.164;2023-08-08T16:17:50;4.17;;;1.30;;
68247;SDS011;55064;49.636;12.164;2023-08-08T16:20:16;5.23;;;1.10;;
68247;SDS011;55064;49.636;12.164;2023-08-08T16:22:42;3.65;;;1.10;;
68247;SDS011;55064;49.636;12.164;2023-08-08T16:25:08;4.20;;;1.13;;
68247;SDS011;55064;49.636;12.164;2023-08-08T16:27:37;4.00;;;0.98;;
68247;SDS011;55064;49.636;12.164;2023-08-08T16:30:02;3.78;;;1.10;;
68247;SDS011;55064;49.636;12.164;2023-08-08T16:32:33;6.25;;;1.30;;
68247;SDS011;55064;49.636;12.164;2023-08-08T16:34:58;3.90;;;1.10;;
68247;SDS011;55064;49.636;12.164;2023-08-08T16:37:23;5.40;;;1.33;;
68247;SDS011;55064;49.636;12.164;2023-08-08T16:39:49;3.20;;;1.00;;
68247;SDS011;55064;49.636;12.164;2023-08-08T16:42:14;4.10;;;1.55;;
68247;SDS011;55064;49.636;12.164;2023-08-08T16:44:42;4.70;;;1.50;;
68247;SDS011;55064;49.636;12.164;2023-08-08T16:47:08;3.63;;;1.30;;
68247;SDS011;55064;49.636;12.164;2023-08-08T16:49:36;5.70;;;1.27;;
68247;SDS011;55064;49.636;12.164;2023-08-08T16:52:05;4.45;;;1.25;;
68247;SDS011;55064;49.636;12.164;2023-08-08T16:54:31;3.88;;;1.20;;
68247;SDS011;55064;49.636;12.164;2023-08-08T16:56:58;3.70;;;1.10;;
68247;SDS011;55064;49.636;12.164;2023-08-08T16:59:26;5.13;;;1.60;;
68247;SDS011;55064;49.636;12.164;2023-08-08T17:01:52;4.67;;;1.20;;
68247;SDS011;55064;49.636;12.164;2023-08-08T17:04:17;5.63;;;1.40;;
68247;SDS011;55064;49.636;12.164;2023-08-08T17:06:43;3.63;;;1.10;;
68247;SDS011;55064;49.636;12.164;2023-08-08T17:09:11;6.07;;;1.40;;
68247;SDS011;55064;49.636;12.164;2023-08-08T17:11:37;4.22;;;1.35;;
68247;SDS011;55064;49.636;12.164;2023-08-08T17:14:03;3.83;;;1.20;;
68247;SDS011;55064;49.636;12.164;2023-08-08T17:16:28;4.15;;;1.40;;
68247;SDS011;55064;49.636;12.164;2023-08-08T17:18:54;4.67;;;1.50;;
68247;SDS011;55064;49.636;12.164;2023-08-08T17:21:23;5.30;;;1.30;;
68247;SDS011;55064;49.636;12.164;2023-08-08T17:23:50;5.45;;;1.27;;
68247;SDS011;55064;49.636;12.164;2023-08-08T17:26:17;4.73;;;1.60;;